sensor_id;sensor_type;location;lat;lon;timestamp;P1;durP1;ratioP1;P2;durP2;ratioP2
11537;SDS011;50159;49.426;11.182;2023-10-13T00:01:34;5.90;;;5.50;;
11537;SDS011;50159;49.426;11.182;2023-10-13T00:04:01;5.77;;;5.27;;
11537;SDS011;50159;49.426;11.182;2023-10-13T00:06:28;6.37;;;5.87;;
11537;SDS011;50159;49.426;11.182;2023-10-13T00:08:55;6.27;;;5.73;;
11537;SDS011;50159;49.426;11.182;2023-10-13T00:11:22;7.20;;;6.43;;
11537;SDS011;50159;49.426;11.182;2023-10-13T00:13:49;9.47;;;6.57;;
11537;SDS011;50159;49.426;11.182;2023-10-13T00:16:20;6.43;;;5.93;;
11537;SDS011;50159;49.426;11.182;2023-10-13T00:18:49;5.97;;;5.50;;
11537;SDS011;50159;49.426;11.182;2023-10-13T00:21:20;6.40;;;5.90;;
11537;SDS011;50159;49.426;11.182;2023-10-13T00:24:01;7.00;;;6.30;;
11537;SDS011;50159;49.426;11.182;2023-10-13T00:26:32;7.00;;;6.37;;
11537;SDS011;50159;49.426;11.182;2023-10-13T00:29:09;6.47;;;5.97;;
11537;SDS011;50159;49.426;11.182;2023-10-13T00:31:42;7.23;;;5.97;;
11537;SDS011;50159;49.426;11.182;2023-10-13T00:34:14;6.57;;;5.93;;
11537;SDS011;50159;49.426;11.182;2023-10-13T00:36:55;5.90;;;5.50;;
11537;SDS011;50159;49.426;11.182;2023-10-13T00:39:40;9.40;;;6.23;;
11537;SDS011;50159;49.426;11.182;2023-10-13T00:42:14;7.40;;;6.70;;
11537;SDS011;50159;49.426;11.182;2023-10-13T00:44:46;6.23;;;5.63;;
11537;SDS011;50159;49.426;11.182;2023-10-13T00:47:16;8.43;;;6.30;;
11537;SDS011;50159;49.426;11.182;2023-10-13T00:50:03;6.97;;;6.30;;
11537;SDS011;50159;49.426;11.182;2023-10-13T00:52:31;7.80;;;6.80;;
11537;SDS011;50159;49.426;11.182;2023-10-13T00:55:02;9.03;;;6.07;;
11537;SDS011;50159;49.426;11.182;2023-10-13T00:57:31;8.27;;;5.93;;
11537;SDS011;50159;49.426;11.182;2023-10-13T00:59:58;6.57;;;6.07;;
11537;SDS011;50159;49.426;11.182;2023-10-13T01:02:38;6.90;;;6.30;;
11537;SDS011;50159;49.426;11.182;2023-10-13T01:05:06;7.17;;;6.47;;
11537;SDS011;50159;49.426;11.182;2023-10-13T01:07:38;6.97;;;6.37;;
11537;SDS011;50159;49.426;11.182;2023-10-13T01:10:09;7.60;;;6.83;;
11537;SDS011;50159;49.426;11.182;2023-10-13T01:12:40;6.90;;;6.30;;
11537;SDS011;50159;49.426;11.182;2023-10-13T01:15:12;6.93;;;6.33;;
11537;SDS011;50159;49.426;11.182;2023-10-13T01:17:45;6.53;;;6.00;;
11537;SDS011;50159;49.426;11.182;2023-10-13T01:20:15;6.73;;;6.13;;
11537;SDS011;50159;49.426;11.182;2023-10-13T01:22:51;7.00;;;5.63;;
11537;SDS011;50159;49.426;11.182;2023-10-13T01:25:22;6.30;;;5.73;;
11537;SDS011;50159;49.426;11.182;2023-10-13T01:27:53;6.93;;;6.33;;
11537;SDS011;50159;49.426;11.182;2023-10-13T01:30:21;8.30;;;6.70;;
11537;SDS011;50159;49.426;11.182;2023-10-13T01:32:53;7.07;;;6.07;;
11537;SDS011;50159;49.426;11.182;2023-10-13T01:35:20;7.13;;;6.43;;
11537;SDS011;50159;49.426;11.182;2023-10-13T01:38:02;7.30;;;6.63;;
11537;SDS011;50159;49.426;11.182;2023-10-13T01:40:29;6.90;;;6.30;;
11537;SDS011;50159;49.426;11.182;2023-10-13T01:42:59;7.00;;;6.40;;
11537;SDS011;50159;49.426;11.182;2023-10-13T01:45:26;6.90;;;6.20;;
11537;SDS011;50159;49.426;11.182;2023-10-13T01:47:56;8.73;;;6.87;;
11537;SDS011;50159;49.426;11.182;2023-10-13T01:50:23;9.30;;;7.00;;
11537;SDS011;50159;49.426;11.182;2023-10-13T01:52:56;7.83;;;7.13;;
11537;SDS011;50159;49.426;11.182;2023-10-13T01:55:40;7.20;;;6.67;;
11537;SDS011;50159;49.426;11.182;2023-10-13T01:58:13;6.63;;;6.03;;
11537;SDS011;50159;49.426;11.182;2023-10-13T02:00:45;6.63;;;6.03;;
11537;SDS011;50159;49.426;11.182;2023-10-13T02:03:15;6.47;;;5.97;;
11537;SDS011;50159;49.426;11.182;2023-10-13T02:05:43;7.40;;;6.67;;
11537;SDS011;50159;49.426;11.182;2023-10-13T02:08:14;8.20;;;6.30;;
11537;SDS011;50159;49.426;11.182;2023-10-13T02:10:52;6.57;;;6.07;;
11537;SDS011;50159;49.426;11.182;2023-10-13T02:13:24;9.10;;;5.93;;
11537;SDS011;50159;49.426;11.182;2023-10-13T02:15:56;6.70;;;6.10;;
11537;SDS011;50159;49.426;11.182;2023-10-13T02:18:24;7.40;;;6.77;;
11537;SDS011;50159;49.426;11.182;2023-10-13T02:20:54;7.23;;;6.10;;
11537;SDS011;50159;49.426;11.182;2023-10-13T02:23:23;6.43;;;5.90;;
11537;SDS011;50159;49.426;11.182;2023-10-13T02:25:51;7.13;;;6.50;;
11537;SDS011;50159;49.426;11.182;2023-10-13T02:28:27;7.47;;;6.73;;
11537;SDS011;50159;49.426;11.182;2023-10-13T02:30:55;9.13;;;8.20;;
11537;SDS011;50159;49.426;11.182;2023-10-13T02:33:23;6.57;;;6.03;;
11537;SDS011;50159;49.426;11.182;2023-10-13T02:35:56;7.40;;;6.73;;
11537;SDS011;50159;49.426;11.182;2023-10-13T02:38:31;7.57;;;6.53;;
11537;SDS011;50159;49.426;11.182;2023-10-13T02:40:59;7.93;;;6.87;;
11537;SDS011;50159;49.426;11.182;2023-10-13T02:43:33;7.23;;;6.43;;
11537;SDS011;50159;49.426;11.182;2023-10-13T02:46:01;8.73;;;6.77;;
11537;SDS011;50159;49.426;11.182;2023-10-13T02:48:29;7.63;;;6.93;;
11537;SDS011;50159;49.426;11.182;2023-10-13T02:51:06;6.80;;;6.17;;
11537;SDS011;50159;49.426;11.182;2023-10-13T02:53:44;7.03;;;6.43;;
11537;SDS011;50159;49.426;11.182;2023-10-13T02:56:16;6.73;;;6.13;;
11537;SDS011;50159;49.426;11.182;2023-10-13T02:58:48;7.97;;;7.27;;
11537;SDS011;50159;49.426;11.182;2023-10-13T03:01:19;7.33;;;6.67;;
11537;SDS011;50159;49.426;11.182;2023-10-13T03:03:49;6.83;;;6.07;;
11537;SDS011;50159;49.426;11.182;2023-10-13T03:06:26;7.43;;;6.73;;
11537;SDS011;50159;49.426;11.182;2023-10-13T03:09:03;8.27;;;6.23;;
11537;SDS011;50159;49.426;11.182;2023-10-13T03:11:48;6.67;;;6.07;;
11537;SDS011;50159;49.426;11.182;2023-10-13T03:14:16;7.87;;;7.03;;
11537;SDS011;50159;49.426;11.182;2023-10-13T03:17:07;6.90;;;6.30;;
11537;SDS011;50159;49.426;11.182;2023-10-13T03:19:43;7.43;;;6.77;;
11537;SDS011;50159;49.426;11.182;2023-10-13T03:22:17;5.93;;;5.47;;
11537;SDS011;50159;49.426;11.182;2023-10-13T03:24:45;6.60;;;5.93;;
11537;SDS011;50159;49.426;11.182;2023-10-13T03:27:15;6.77;;;6.13;;
11537;SDS011;50159;49.426;11.182;2023-10-13T03:29:49;7.40;;;6.80;;
11537;SDS011;50159;49.426;11.182;2023-10-13T03:32:22;8.73;;;6.57;;
11537;SDS011;50159;49.426;11.182;2023-10-13T03:34:53;7.27;;;6.67;;
11537;SDS011;50159;49.426;11.182;2023-10-13T03:37:26;7.10;;;6.43;;
11537;SDS011;50159;49.426;11.182;2023-10-13T03:40:05;7.83;;;6.60;;
11537;SDS011;50159;49.426;11.182;2023-10-13T03:42:42;7.60;;;6.90;;
11537;SDS011;50159;49.426;11.182;2023-10-13T03:45:09;6.83;;;6.13;;
11537;SDS011;50159;49.426;11.182;2023-10-13T03:47:37;6.90;;;6.20;;
11537;SDS011;50159;49.426;11.182;2023-10-13T03:50:05;8.10;;;6.50;;
11537;SDS011;50159;49.426;11.182;2023-10-13T03:52:41;6.83;;;6.23;;
11537;SDS011;50159;49.426;11.182;2023-10-13T03:55:08;6.00;;;5.60;;
11537;SDS011;50159;49.426;11.182;2023-10-13T03:57:44;7.33;;;6.03;;
11537;SDS011;50159;49.426;11.182;2023-10-13T04:00:12;8.97;;;6.70;;
11537;SDS011;50159;49.426;11.182;2023-10-13T04:02:47;7.57;;;6.77;;
11537;SDS011;50159;49.426;11.182;2023-10-13T04:05:20;6.83;;;6.13;;
11537;SDS011;50159;49.426;11.182;2023-10-13T04:08:07;7.37;;;6.67;;
11537;SDS011;50159;49.426;11.182;2023-10-13T04:10:53;7.47;;;6.77;;
11537;SDS011;50159;49.426;11.182;2023-10-13T04:13:22;7.87;;;6.40;;
11537;SDS011;50159;49.426;11.182;2023-10-13T04:16:08;7.67;;;6.87;;
11537;SDS011;50159;49.426;11.182;2023-10-13T04:19:01;7.17;;;6.13;;
11537;SDS011;50159;49.426;11.182;2023-10-13T04:21:28;7.20;;;6.47;;
11537;SDS011;50159;49.426;11.182;2023-10-13T04:26:49;6.63;;;6.03;;
11537;SDS011;50159;49.426;11.182;2023-10-13T04:29:36;7.77;;;7.07;;
11537;SDS011;50159;49.426;11.182;2023-10-13T04:32:18;8.50;;;6.43;;
11537;SDS011;50159;49.426;11.182;2023-10-13T04:35:20;7.30;;;6.60;;
11537;SDS011;50159;49.426;11.182;2023-10-13T04:37:50;7.77;;;6.97;;
11537;SDS011;50159;49.426;11.182;2023-10-13T04:40:27;7.50;;;6.90;;
11537;SDS011;50159;49.426;11.182;2023-10-13T04:43:01;7.73;;;6.80;;
11537;SDS011;50159;49.426;11.182;2023-10-13T04:45:51;6.83;;;6.23;;
11537;SDS011;50159;49.426;11.182;2023-10-13T04:48:21;6.73;;;6.13;;
11537;SDS011;50159;49.426;11.182;2023-10-13T04:50:48;7.50;;;6.80;;
11537;SDS011;50159;49.426;11.182;2023-10-13T04:53:24;7.37;;;6.50;;
11537;SDS011;50159;49.426;11.182;2023-10-13T04:55:59;8.60;;;6.60;;
11537;SDS011;50159;49.426;11.182;2023-10-13T04:58:30;7.57;;;6.87;;
11537;SDS011;50159;49.426;11.182;2023-10-13T05:01:16;7.13;;;6.20;;
11537;SDS011;50159;49.426;11.182;2023-10-13T05:04:03;7.50;;;6.80;;
11537;SDS011;50159;49.426;11.182;2023-10-13T05:06:56;6.03;;;5.50;;
11537;SDS011;50159;49.426;11.182;2023-10-13T05:09:44;7.20;;;6.60;;
11537;SDS011;50159;49.426;11.182;2023-10-13T05:12:29;6.50;;;5.90;;
11537;SDS011;50159;49.426;11.182;2023-10-13T05:15:15;6.70;;;6.10;;
11537;SDS011;50159;49.426;11.182;2023-10-13T05:18:00;7.17;;;6.47;;
11537;SDS011;50159;49.426;11.182;2023-10-13T05:20:46;6.53;;;5.93;;
11537;SDS011;50159;49.426;11.182;2023-10-13T05:23:31;8.30;;;6.60;;
11537;SDS011;50159;49.426;11.182;2023-10-13T05:26:17;6.50;;;5.80;;
11537;SDS011;50159;49.426;11.182;2023-10-13T05:29:07;7.37;;;5.87;;
11537;SDS011;50159;49.426;11.182;2023-10-13T05:31:54;7.47;;;6.23;;
11537;SDS011;50159;49.426;11.182;2023-10-13T05:34:40;6.40;;;5.80;;
11537;SDS011;50159;49.426;11.182;2023-10-13T05:37:25;6.80;;;6.20;;
11537;SDS011;50159;49.426;11.182;2023-10-13T05:40:10;6.47;;;5.87;;
11537;SDS011;50159;49.426;11.182;2023-10-13T05:42:56;6.43;;;5.83;;
11537;SDS011;50159;49.426;11.182;2023-10-13T05:45:41;6.77;;;6.13;;
11537;SDS011;50159;49.426;11.182;2023-10-13T05:48:31;6.73;;;6.03;;
11537;SDS011;50159;49.426;11.182;2023-10-13T05:51:17;8.10;;;6.33;;
11537;SDS011;50159;49.426;11.182;2023-10-13T05:53:59;6.27;;;5.77;;
11537;SDS011;50159;49.426;11.182;2023-10-13T05:56:47;6.10;;;5.60;;
11537;SDS011;50159;49.426;11.182;2023-10-13T05:59:36;6.93;;;5.70;;
11537;SDS011;50159;49.426;11.182;2023-10-13T06:02:23;7.20;;;5.97;;
11537;SDS011;50159;49.426;11.182;2023-10-13T06:05:09;7.47;;;6.10;;
11537;SDS011;50159;49.426;11.182;2023-10-13T06:07:57;5.97;;;5.33;;
11537;SDS011;50159;49.426;11.182;2023-10-13T06:10:43;5.67;;;5.13;;
11537;SDS011;50159;49.426;11.182;2023-10-13T06:13:29;6.23;;;5.50;;
11537;SDS011;50159;49.426;11.182;2023-10-13T06:16:16;5.70;;;5.20;;
11537;SDS011;50159;49.426;11.182;2023-10-13T06:19:02;5.20;;;4.80;;
11537;SDS011;50159;49.426;11.182;2023-10-13T06:21:48;5.43;;;4.93;;
11537;SDS011;50159;49.426;11.182;2023-10-13T06:24:34;6.13;;;5.53;;
11537;SDS011;50159;49.426;11.182;2023-10-13T06:27:19;5.47;;;5.07;;
11537;SDS011;50159;49.426;11.182;2023-10-13T06:30:05;5.20;;;4.80;;
11537;SDS011;50159;49.426;11.182;2023-10-13T06:32:33;5.60;;;5.10;;
11537;SDS011;50159;49.426;11.182;2023-10-13T06:35:00;5.57;;;4.70;;
11537;SDS011;50159;49.426;11.182;2023-10-13T06:37:33;5.17;;;4.77;;
11537;SDS011;50159;49.426;11.182;2023-10-13T06:40:03;5.30;;;4.70;;
11537;SDS011;50159;49.426;11.182;2023-10-13T06:42:52;4.93;;;4.53;;
11537;SDS011;50159;49.426;11.182;2023-10-13T06:45:21;5.03;;;4.63;;
11537;SDS011;50159;49.426;11.182;2023-10-13T06:47:48;4.57;;;4.20;;
11537;SDS011;50159;49.426;11.182;2023-10-13T06:50:19;4.60;;;4.30;;
11537;SDS011;50159;49.426;11.182;2023-10-13T06:52:50;5.17;;;4.70;;
11537;SDS011;50159;49.426;11.182;2023-10-13T06:55:21;6.00;;;4.60;;
11537;SDS011;50159;49.426;11.182;2023-10-13T06:57:54;4.80;;;4.50;;
11537;SDS011;50159;49.426;11.182;2023-10-13T07:00:26;4.67;;;4.37;;
11537;SDS011;50159;49.426;11.182;2023-10-13T07:02:56;4.53;;;4.23;;
11537;SDS011;50159;49.426;11.182;2023-10-13T07:05:36;4.80;;;4.23;;
11537;SDS011;50159;49.426;11.182;2023-10-13T07:08:10;4.73;;;4.33;;
11537;SDS011;50159;49.426;11.182;2023-10-13T07:10:50;7.90;;;4.47;;
11537;SDS011;50159;49.426;11.182;2023-10-13T07:13:18;4.37;;;3.97;;
11537;SDS011;50159;49.426;11.182;2023-10-13T07:15:46;5.47;;;4.70;;
11537;SDS011;50159;49.426;11.182;2023-10-13T07:18:14;3.97;;;3.67;;
11537;SDS011;50159;49.426;11.182;2023-10-13T07:20:43;4.10;;;3.80;;
11537;SDS011;50159;49.426;11.182;2023-10-13T07:23:11;4.40;;;4.00;;
11537;SDS011;50159;49.426;11.182;2023-10-13T07:25:56;4.77;;;4.13;;
11537;SDS011;50159;49.426;11.182;2023-10-13T07:28:30;7.53;;;4.60;;
11537;SDS011;50159;49.426;11.182;2023-10-13T07:31:02;7.67;;;4.77;;
11537;SDS011;50159;49.426;11.182;2023-10-13T07:33:30;5.37;;;4.47;;
11537;SDS011;50159;49.426;11.182;2023-10-13T07:38:54;15.73;;;4.80;;
11537;SDS011;50159;49.426;11.182;2023-10-13T07:41:49;5.43;;;3.93;;
11537;SDS011;50159;49.426;11.182;2023-10-13T07:44:21;7.67;;;4.50;;
11537;SDS011;50159;49.426;11.182;2023-10-13T07:46:52;4.80;;;4.23;;
11537;SDS011;50159;49.426;11.182;2023-10-13T07:49:27;4.17;;;3.87;;
11537;SDS011;50159;49.426;11.182;2023-10-13T07:52:00;5.90;;;4.10;;
11537;SDS011;50159;49.426;11.182;2023-10-13T07:54:50;8.20;;;4.37;;
11537;SDS011;50159;49.426;11.182;2023-10-13T07:57:38;7.33;;;4.27;;
11537;SDS011;50159;49.426;11.182;2023-10-13T08:00:24;5.17;;;3.90;;
11537;SDS011;50159;49.426;11.182;2023-10-13T08:03:01;4.33;;;3.87;;
11537;SDS011;50159;49.426;11.182;2023-10-13T08:05:44;4.50;;;3.93;;
11537;SDS011;50159;49.426;11.182;2023-10-13T08:08:47;5.07;;;4.57;;
11537;SDS011;50159;49.426;11.182;2023-10-13T08:11:20;3.90;;;3.60;;
11537;SDS011;50159;49.426;11.182;2023-10-13T08:14:07;5.10;;;3.77;;
11537;SDS011;50159;49.426;11.182;2023-10-13T08:16:56;5.20;;;4.00;;
11537;SDS011;50159;49.426;11.182;2023-10-13T08:19:27;4.17;;;3.77;;
11537;SDS011;50159;49.426;11.182;2023-10-13T08:21:59;4.40;;;4.07;;
11537;SDS011;50159;49.426;11.182;2023-10-13T08:24:47;4.40;;;4.10;;
11537;SDS011;50159;49.426;11.182;2023-10-13T08:27:18;5.87;;;4.00;;
11537;SDS011;50159;49.426;11.182;2023-10-13T08:30:06;4.43;;;4.03;;
11537;SDS011;50159;49.426;11.182;2023-10-13T08:32:52;4.57;;;3.90;;
11537;SDS011;50159;49.426;11.182;2023-10-13T08:35:26;3.83;;;3.63;;
11537;SDS011;50159;49.426;11.182;2023-10-13T08:37:56;3.67;;;3.40;;
11537;SDS011;50159;49.426;11.182;2023-10-13T08:40:48;3.63;;;3.33;;
11537;SDS011;50159;49.426;11.182;2023-10-13T08:43:23;4.00;;;3.57;;
11537;SDS011;50159;49.426;11.182;2023-10-13T08:46:09;3.40;;;3.20;;
11537;SDS011;50159;49.426;11.182;2023-10-13T08:48:59;7.90;;;3.53;;
11537;SDS011;50159;49.426;11.182;2023-10-13T08:51:42;3.77;;;3.40;;
11537;SDS011;50159;49.426;11.182;2023-10-13T08:54:16;6.53;;;3.90;;
11537;SDS011;50159;49.426;11.182;2023-10-13T08:57:01;4.20;;;3.80;;
11537;SDS011;50159;49.426;11.182;2023-10-13T08:59:59;3.90;;;3.70;;
11537;SDS011;50159;49.426;11.182;2023-10-13T09:02:46;5.97;;;3.73;;
11537;SDS011;50159;49.426;11.182;2023-10-13T09:05:26;5.60;;;4.10;;
11537;SDS011;50159;49.426;11.182;2023-10-13T09:08:25;7.00;;;4.17;;
11537;SDS011;50159;49.426;11.182;2023-10-13T09:11:16;4.20;;;3.80;;
11537;SDS011;50159;49.426;11.182;2023-10-13T09:13:52;11.27;;;4.50;;
11537;SDS011;50159;49.426;11.182;2023-10-13T09:16:19;5.50;;;4.47;;
11537;SDS011;50159;49.426;11.182;2023-10-13T09:19:09;7.63;;;4.10;;
11537;SDS011;50159;49.426;11.182;2023-10-13T09:21:38;6.83;;;4.00;;
11537;SDS011;50159;49.426;11.182;2023-10-13T09:24:09;7.87;;;4.30;;
11537;SDS011;50159;49.426;11.182;2023-10-13T09:26:50;6.97;;;3.83;;
11537;SDS011;50159;49.426;11.182;2023-10-13T09:29:21;6.03;;;3.83;;
11537;SDS011;50159;49.426;11.182;2023-10-13T09:32:00;4.60;;;4.20;;
11537;SDS011;50159;49.426;11.182;2023-10-13T09:34:30;7.33;;;3.87;;
11537;SDS011;50159;49.426;11.182;2023-10-13T09:37:01;4.53;;;4.17;;
11537;SDS011;50159;49.426;11.182;2023-10-13T09:39:32;5.73;;;4.17;;
11537;SDS011;50159;49.426;11.182;2023-10-13T09:42:14;5.60;;;3.97;;
11537;SDS011;50159;49.426;11.182;2023-10-13T09:44:47;10.10;;;3.63;;
11537;SDS011;50159;49.426;11.182;2023-10-13T09:47:22;6.37;;;5.20;;
11537;SDS011;50159;49.426;11.182;2023-10-13T09:50:04;5.00;;;3.90;;
11537;SDS011;50159;49.426;11.182;2023-10-13T09:52:40;6.17;;;3.57;;
11537;SDS011;50159;49.426;11.182;2023-10-13T09:55:24;9.57;;;4.03;;
11537;SDS011;50159;49.426;11.182;2023-10-13T09:58:02;11.33;;;3.80;;
11537;SDS011;50159;49.426;11.182;2023-10-13T10:00:41;5.50;;;3.37;;
11537;SDS011;50159;49.426;11.182;2023-10-13T10:03:24;4.90;;;3.50;;
11537;SDS011;50159;49.426;11.182;2023-10-13T10:06:01;5.97;;;3.50;;
11537;SDS011;50159;49.426;11.182;2023-10-13T10:08:43;6.50;;;3.83;;
11537;SDS011;50159;49.426;11.182;2023-10-13T10:11:29;8.03;;;3.70;;
11537;SDS011;50159;49.426;11.182;2023-10-13T10:14:47;4.47;;;3.70;;
11537;SDS011;50159;49.426;11.182;2023-10-13T10:17:41;8.20;;;3.37;;
11537;SDS011;50159;49.426;11.182;2023-10-13T10:20:10;3.23;;;3.03;;
11537;SDS011;50159;49.426;11.182;2023-10-13T10:22:59;5.77;;;3.33;;
11537;SDS011;50159;49.426;11.182;2023-10-13T10:25:30;6.97;;;3.23;;
11537;SDS011;50159;49.426;11.182;2023-10-13T10:28:02;4.87;;;3.50;;
11537;SDS011;50159;49.426;11.182;2023-10-13T10:30:35;4.40;;;3.57;;
11537;SDS011;50159;49.426;11.182;2023-10-13T10:33:05;9.63;;;4.00;;
11537;SDS011;50159;49.426;11.182;2023-10-13T10:35:40;6.57;;;3.50;;
11537;SDS011;50159;49.426;11.182;2023-10-13T10:38:16;10.13;;;2.97;;
11537;SDS011;50159;49.426;11.182;2023-10-13T10:40:55;7.43;;;3.13;;
11537;SDS011;50159;49.426;11.182;2023-10-13T10:43:36;5.17;;;3.23;;
11537;SDS011;50159;49.426;11.182;2023-10-13T10:46:25;3.33;;;3.03;;
11537;SDS011;50159;49.426;11.182;2023-10-13T10:48:57;3.87;;;3.57;;
11537;SDS011;50159;49.426;11.182;2023-10-13T10:51:27;5.80;;;3.03;;
11537;SDS011;50159;49.426;11.182;2023-10-13T10:53:58;6.30;;;3.00;;
11537;SDS011;50159;49.426;11.182;2023-10-13T10:56:37;3.00;;;2.70;;
11537;SDS011;50159;49.426;11.182;2023-10-13T10:59:05;3.43;;;3.13;;
11537;SDS011;50159;49.426;11.182;2023-10-13T11:01:42;4.73;;;3.43;;
11537;SDS011;50159;49.426;11.182;2023-10-13T11:04:14;7.20;;;4.00;;
11537;SDS011;50159;49.426;11.182;2023-10-13T11:06:46;8.33;;;3.57;;
11537;SDS011;50159;49.426;11.182;2023-10-13T11:09:13;5.50;;;3.20;;
11537;SDS011;50159;49.426;11.182;2023-10-13T11:11:53;7.03;;;3.07;;
11537;SDS011;50159;49.426;11.182;2023-10-13T11:14:26;7.97;;;3.40;;
11537;SDS011;50159;49.426;11.182;2023-10-13T11:16:55;4.33;;;3.37;;
11537;SDS011;50159;49.426;11.182;2023-10-13T11:19:36;5.73;;;3.17;;
11537;SDS011;50159;49.426;11.182;2023-10-13T11:22:10;4.13;;;3.17;;
11537;SDS011;50159;49.426;11.182;2023-10-13T11:24:56;5.67;;;3.40;;
11537;SDS011;50159;49.426;11.182;2023-10-13T11:27:29;7.97;;;3.33;;
11537;SDS011;50159;49.426;11.182;2023-10-13T11:30:15;5.70;;;3.00;;
11537;SDS011;50159;49.426;11.182;2023-10-13T11:33:02;6.93;;;3.40;;
11537;SDS011;50159;49.426;11.182;2023-10-13T11:35:36;5.13;;;3.40;;
11537;SDS011;50159;49.426;11.182;2023-10-13T11:38:24;9.73;;;3.80;;
11537;SDS011;50159;49.426;11.182;2023-10-13T11:41:07;5.37;;;3.30;;
11537;SDS011;50159;49.426;11.182;2023-10-13T11:43:38;3.23;;;2.90;;
11537;SDS011;50159;49.426;11.182;2023-10-13T11:46:16;4.03;;;3.00;;
11537;SDS011;50159;49.426;11.182;2023-10-13T11:49:07;12.63;;;3.60;;
11537;SDS011;50159;49.426;11.182;2023-10-13T11:51:43;3.83;;;3.40;;
11537;SDS011;50159;49.426;11.182;2023-10-13T11:54:12;3.93;;;3.10;;
11537;SDS011;50159;49.426;11.182;2023-10-13T11:56:41;5.80;;;3.23;;
11537;SDS011;50159;49.426;11.182;2023-10-13T11:59:09;4.07;;;3.30;;
11537;SDS011;50159;49.426;11.182;2023-10-13T12:01:48;9.00;;;3.50;;
11537;SDS011;50159;49.426;11.182;2023-10-13T12:04:35;5.37;;;3.40;;
11537;SDS011;50159;49.426;11.182;2023-10-13T12:07:10;5.43;;;3.30;;
11537;SDS011;50159;49.426;11.182;2023-10-13T12:09:55;5.50;;;2.90;;
11537;SDS011;50159;49.426;11.182;2023-10-13T12:12:22;3.43;;;3.00;;
11537;SDS011;50159;49.426;11.182;2023-10-13T12:14:51;5.07;;;3.27;;
11537;SDS011;50159;49.426;11.182;2023-10-13T12:17:24;5.43;;;3.13;;
11537;SDS011;50159;49.426;11.182;2023-10-13T12:20:03;2.90;;;2.70;;
11537;SDS011;50159;49.426;11.182;2023-10-13T12:22:36;3.30;;;2.87;;
11537;SDS011;50159;49.426;11.182;2023-10-13T12:25:09;11.60;;;3.30;;
11537;SDS011;50159;49.426;11.182;2023-10-13T12:27:54;6.50;;;3.27;;
11537;SDS011;50159;49.426;11.182;2023-10-13T12:30:25;7.17;;;2.60;;
11537;SDS011;50159;49.426;11.182;2023-10-13T12:33:02;10.40;;;3.43;;
11537;SDS011;50159;49.426;11.182;2023-10-13T12:35:41;4.20;;;2.70;;
11537;SDS011;50159;49.426;11.182;2023-10-13T12:38:25;3.53;;;3.23;;
11537;SDS011;50159;49.426;11.182;2023-10-13T12:41:10;4.83;;;2.93;;
11537;SDS011;50159;49.426;11.182;2023-10-13T12:44:02;4.80;;;2.50;;
11537;SDS011;50159;49.426;11.182;2023-10-13T12:46:50;2.70;;;2.50;;
11537;SDS011;50159;49.426;11.182;2023-10-13T12:49:37;3.43;;;3.13;;
11537;SDS011;50159;49.426;11.182;2023-10-13T12:52:11;2.90;;;2.70;;
11537;SDS011;50159;49.426;11.182;2023-10-13T12:54:58;3.50;;;2.70;;
11537;SDS011;50159;49.426;11.182;2023-10-13T12:57:32;2.90;;;2.57;;
11537;SDS011;50159;49.426;11.182;2023-10-13T13:00:00;3.70;;;2.43;;
11537;SDS011;50159;49.426;11.182;2023-10-13T13:02:29;3.40;;;2.53;;
11537;SDS011;50159;49.426;11.182;2023-10-13T13:04:56;6.03;;;2.83;;
11537;SDS011;50159;49.426;11.182;2023-10-13T13:07:32;3.07;;;2.67;;
11537;SDS011;50159;49.426;11.182;2023-10-13T13:10:10;6.00;;;3.10;;
11537;SDS011;50159;49.426;11.182;2023-10-13T13:12:38;3.50;;;2.70;;
11537;SDS011;50159;49.426;11.182;2023-10-13T13:15:05;3.57;;;2.67;;
11537;SDS011;50159;49.426;11.182;2023-10-13T13:17:38;6.63;;;2.67;;
11537;SDS011;50159;49.426;11.182;2023-10-13T13:20:06;4.33;;;3.17;;
11537;SDS011;50159;49.426;11.182;2023-10-13T13:23:00;8.53;;;3.10;;
11537;SDS011;50159;49.426;11.182;2023-10-13T13:25:30;3.70;;;2.70;;
11537;SDS011;50159;49.426;11.182;2023-10-13T13:27:58;6.63;;;2.47;;
11537;SDS011;50159;49.426;11.182;2023-10-13T13:30:31;2.70;;;2.43;;
11537;SDS011;50159;49.426;11.182;2023-10-13T13:33:01;4.63;;;2.50;;
11537;SDS011;50159;49.426;11.182;2023-10-13T13:35:40;5.70;;;2.70;;
11537;SDS011;50159;49.426;11.182;2023-10-13T13:38:10;7.17;;;2.77;;
11537;SDS011;50159;49.426;11.182;2023-10-13T13:40:42;9.00;;;2.87;;
11537;SDS011;50159;49.426;11.182;2023-10-13T13:43:15;3.63;;;2.80;;
11537;SDS011;50159;49.426;11.182;2023-10-13T13:46:01;3.40;;;2.50;;
11537;SDS011;50159;49.426;11.182;2023-10-13T13:48:29;3.60;;;2.43;;
11537;SDS011;50159;49.426;11.182;2023-10-13T13:50:57;2.33;;;2.13;;
11537;SDS011;50159;49.426;11.182;2023-10-13T13:53:30;3.23;;;2.43;;
11537;SDS011;50159;49.426;11.182;2023-10-13T13:56:04;2.33;;;2.13;;
11537;SDS011;50159;49.426;11.182;2023-10-13T13:58:31;3.50;;;2.40;;
11537;SDS011;50159;49.426;11.182;2023-10-13T14:01:04;3.00;;;2.27;;
11537;SDS011;50159;49.426;11.182;2023-10-13T14:03:41;2.70;;;2.50;;
11537;SDS011;50159;49.426;11.182;2023-10-13T14:06:16;3.20;;;2.57;;
11537;SDS011;50159;49.426;11.182;2023-10-13T14:08:54;8.93;;;3.33;;
11537;SDS011;50159;49.426;11.182;2023-10-13T14:11:24;4.80;;;2.63;;
11537;SDS011;50159;49.426;11.182;2023-10-13T14:16:47;7.00;;;2.87;;
11537;SDS011;50159;49.426;11.182;2023-10-13T14:19:14;3.90;;;3.13;;
11537;SDS011;50159;49.426;11.182;2023-10-13T14:21:54;5.57;;;2.30;;
11537;SDS011;50159;49.426;11.182;2023-10-13T14:24:22;4.53;;;3.03;;
11537;SDS011;50159;49.426;11.182;2023-10-13T14:27:16;5.50;;;2.40;;
11537;SDS011;50159;49.426;11.182;2023-10-13T14:29:47;2.53;;;2.33;;
11537;SDS011;50159;49.426;11.182;2023-10-13T14:32:20;3.30;;;2.70;;
11537;SDS011;50159;49.426;11.182;2023-10-13T14:34:51;5.33;;;2.40;;
11537;SDS011;50159;49.426;11.182;2023-10-13T14:37:22;2.60;;;2.20;;
11537;SDS011;50159;49.426;11.182;2023-10-13T14:39:53;7.87;;;2.53;;
11537;SDS011;50159;49.426;11.182;2023-10-13T14:42:24;5.90;;;2.50;;
11537;SDS011;50159;49.426;11.182;2023-10-13T14:44:53;4.40;;;2.87;;
11537;SDS011;50159;49.426;11.182;2023-10-13T14:47:23;2.80;;;2.30;;
11537;SDS011;50159;49.426;11.182;2023-10-13T14:49:55;3.20;;;2.90;;
11537;SDS011;50159;49.426;11.182;2023-10-13T14:52:29;3.17;;;2.60;;
11537;SDS011;50159;49.426;11.182;2023-10-13T14:54:58;5.10;;;2.30;;
11537;SDS011;50159;49.426;11.182;2023-10-13T14:57:25;2.70;;;2.50;;
11537;SDS011;50159;49.426;11.182;2023-10-13T14:59:53;2.07;;;1.97;;
11537;SDS011;50159;49.426;11.182;2023-10-13T15:02:21;1.80;;;1.70;;
11537;SDS011;50159;49.426;11.182;2023-10-13T15:04:49;2.20;;;1.80;;
11537;SDS011;50159;49.426;11.182;2023-10-13T15:07:17;1.57;;;1.50;;
11537;SDS011;50159;49.426;11.182;2023-10-13T15:09:45;1.90;;;1.80;;
11537;SDS011;50159;49.426;11.182;2023-10-13T15:12:12;1.80;;;1.70;;
11537;SDS011;50159;49.426;11.182;2023-10-13T15:14:46;1.90;;;1.80;;
11537;SDS011;50159;49.426;11.182;2023-10-13T15:17:13;1.67;;;1.60;;
11537;SDS011;50159;49.426;11.182;2023-10-13T15:19:45;1.80;;;1.80;;
11537;SDS011;50159;49.426;11.182;2023-10-13T15:22:12;1.30;;;1.30;;
11537;SDS011;50159;49.426;11.182;2023-10-13T15:24:51;1.70;;;1.70;;
11537;SDS011;50159;49.426;11.182;2023-10-13T15:27:35;1.57;;;1.47;;
11537;SDS011;50159;49.426;11.182;2023-10-13T15:30:07;1.40;;;1.40;;
11537;SDS011;50159;49.426;11.182;2023-10-13T15:32:57;2.27;;;2.17;;
11537;SDS011;50159;49.426;11.182;2023-10-13T15:35:24;2.20;;;2.10;;